Time;durP1;ratioP1;P1;durP2;ratioP2;P2;SDS_P1;SDS_P2;PMS_P1;PMS_P2;Temp;Humidity;BMP_temperature;BMP_pressure;BME280_temperature;BME280_humidity;BME280_pressure;Samples;Min_cycle;Max_cycle;Signal;HPM_P1;HPM_P2
2021/01/02 00:01:33;;;;;;;44.43;23.43;;;4.00;99.90;;;;;;5024622;28;20173;-88
2021/01/02 00:04:36;;;;;;;48.03;23.73;;;4.00;99.90;;;;;;5024701;28;20167;-88
2021/01/02 00:07:28;;;;;;;42.40;23.40;;;4.00;99.90;;;;;;5003649;28;20173;-89
2021/01/02 00:10:02;;;;;;;36.83;22.87;;;4.00;99.90;;;;;;4952117;28;20182;-89
2021/01/02 00:12:58;;;;;;;46.47;23.30;;;4.00;99.90;;;;;;5017789;28;20642;-89
2021/01/02 00:15:33;;;;;;;41.57;22.43;;;3.90;99.90;;;;;;4989616;28;20759;-89
2021/01/02 00:18:23;;;;;;;43.30;23.30;;;3.90;99.90;;;;;;5001593;28;20207;-89
2021/01/02 00:21:17;;;;;;;62.83;33.30;;;3.90;99.90;;;;;;5002096;28;20627;-89
2021/01/02 00:24:15;;;;;;;51.23;27.17;;;3.90;99.90;;;;;;5020281;28;20238;-89
2021/01/02 00:27:03;;;;;;;49.27;25.67;;;3.80;99.90;;;;;;5021069;28;20192;-89
2021/01/02 00:30:01;;;;;;;45.83;24.27;;;3.80;99.90;;;;;;5004455;28;20177;-89
2021/01/02 00:32:43;;;;;;;50.30;27.17;;;3.50;99.90;;;;;;5014684;28;20181;-89
2021/01/02 00:35:28;;;;;;;64.27;34.40;;;3.50;99.90;;;;;;5005532;28;20184;-89
2021/01/02 00:38:03;;;;;;;52.27;27.37;;;3.70;99.90;;;;;;4986012;28;20177;-88
2021/01/02 00:40:31;;;;;;;48.50;26.93;;;3.70;99.90;;;;;;4983451;28;20623;-89
2021/01/02 00:42:57;;;;;;;48.10;24.80;;;3.90;99.90;;;;;;4971028;28;20613;-89
2021/01/02 00:45:25;;;;;;;49.60;25.23;;;4.20;99.90;;;;;;5021425;28;20204;-89
2021/01/02 00:47:53;;;;;;;41.83;23.33;;;4.30;99.90;;;;;;5022095;28;20165;-88
2021/01/02 00:50:21;;;;;;;43.90;23.87;;;4.40;99.90;;;;;;5021473;28;20173;-89
2021/01/02 00:52:47;;;;;;;51.57;25.70;;;4.40;99.90;;;;;;5021236;28;20176;-89
2021/01/02 00:55:25;;;;;;;38.80;23.37;;;4.30;99.90;;;;;;5004991;28;20180;-88
2021/01/02 00:58:29;;;;;;;43.37;24.27;;;4.30;99.90;;;;;;5004254;28;20172;-89
2021/01/02 01:01:06;;;;;;;43.50;24.50;;;4.20;99.90;;;;;;5004931;28;20180;-89
2021/01/02 01:04:09;;;;;;;44.70;24.47;;;4.00;99.90;;;;;;4970259;28;20220;-89
2021/01/02 01:06:38;;;;;;;47.50;24.40;;;3.90;99.90;;;;;;5000243;28;20189;-89
2021/01/02 01:09:12;;;;;;;44.43;24.03;;;3.80;99.90;;;;;;5001151;28;20173;-89
2021/01/02 01:11:45;;;;;;;45.50;24.57;;;3.70;99.90;;;;;;5001315;28;20172;-89
2021/01/02 01:14:11;;;;;;;52.43;26.30;;;3.70;99.90;;;;;;4986789;28;20686;-88
2021/01/02 01:16:42;;;;;;;55.80;25.80;;;3.80;99.90;;;;;;5020177;28;20250;-89
2021/01/02 01:19:11;;;;;;;49.17;25.40;;;3.90;99.90;;;;;;5021732;28;20199;-89
2021/01/02 01:21:44;;;;;;;52.73;26.33;;;3.80;99.90;;;;;;5021395;28;20169;-89
2021/01/02 01:24:21;;;;;;;52.10;26.03;;;3.80;99.90;;;;;;5021260;28;20223;-89
2021/01/02 01:27:05;;;;;;;45.83;25.73;;;3.80;99.90;;;;;;4988705;28;20231;-89
2021/01/02 01:29:47;;;;;;;52.03;26.53;;;3.80;99.90;;;;;;5005574;28;20205;-89
2021/01/02 01:32:19;;;;;;;59.00;26.43;;;3.90;99.90;;;;;;5022305;28;20145;-89
2021/01/02 01:34:46;;;;;;;57.47;26.53;;;4.00;99.90;;;;;;5021917;28;20196;-89
2021/01/02 01:37:17;;;;;;;48.53;25.10;;;4.10;99.90;;;;;;4977524;28;20184;-90
2021/01/02 01:39:52;;;;;;;51.00;25.97;;;4.10;99.90;;;;;;5024791;28;20203;-90
2021/01/02 01:42:34;;;;;;;49.70;25.40;;;4.10;99.90;;;;;;5006064;28;20178;-89
2021/01/02 01:45:38;;;;;;;47.53;23.77;;;4.10;99.90;;;;;;5022212;28;20152;-89
2021/01/02 01:48:12;;;;;;;50.50;25.13;;;4.30;99.90;;;;;;4974697;28;20177;-89
2021/01/02 01:51:09;;;;;;;44.97;23.47;;;4.30;99.90;;;;;;5002192;28;20696;-89
2021/01/02 01:53:54;;;;;;;49.30;24.43;;;4.30;99.90;;;;;;4998579;28;20200;-90
2021/01/02 01:56:38;;;;;;;43.93;23.47;;;4.50;99.90;;;;;;5002765;28;20199;-90
2021/01/02 01:59:23;;;;;;;45.93;23.93;;;4.40;99.90;;;;;;5037783;28;20227;-89
2021/01/02 02:01:55;;;;;;;43.77;23.27;;;4.40;99.90;;;;;;5038443;28;20183;-89
2021/01/02 02:04:32;;;;;;;42.37;22.53;;;4.30;99.90;;;;;;5019423;28;20647;-90
2021/01/02 02:07:01;;;;;;;43.07;23.23;;;4.40;99.90;;;;;;5014448;28;20182;-90
2021/01/02 02:09:49;;;;;;;49.80;24.90;;;4.50;99.90;;;;;;5013857;28;20173;-89
2021/01/02 02:12:21;;;;;;;40.87;22.20;;;4.50;99.90;;;;;;5014555;28;20180;-90
2021/01/02 02:15:04;;;;;;;45.03;25.27;;;4.50;99.90;;;;;;5025783;28;20181;-90
2021/01/02 02:17:53;;;;;;;41.53;22.23;;;4.60;99.90;;;;;;5036776;28;20181;-89
2021/01/02 02:20:28;;;;;;;38.60;22.87;;;4.60;99.90;;;;;;5029247;28;20250;-89
2021/01/02 02:23:06;;;;;;;44.53;21.73;;;4.50;99.90;;;;;;5015220;28;20164;-89
2021/01/02 02:25:59;;;;;;;39.63;21.83;;;4.50;99.90;;;;;;4997750;28;20618;-90
2021/01/02 02:28:47;;;;;;;39.43;21.73;;;4.50;99.90;;;;;;5014105;28;20654;-89
2021/01/02 02:31:16;;;;;;;37.27;21.73;;;4.50;99.90;;;;;;4997110;28;20189;-90
2021/01/02 02:33:53;;;;;;;40.37;21.60;;;4.50;99.90;;;;;;5013976;28;20510;-90
2021/01/02 02:36:20;;;;;;;43.27;22.97;;;4.60;99.90;;;;;;5013916;28;20172;-90
2021/01/02 02:38:46;;;;;;;37.30;20.90;;;4.60;99.90;;;;;;5014847;28;20670;-89
2021/01/02 02:41:15;;;;;;;37.47;22.17;;;4.60;99.90;;;;;;5002778;28;20244;-90
2021/01/02 02:43:45;;;;;;;40.23;22.33;;;4.60;99.90;;;;;;4993910;28;20243;-90
2021/01/02 02:46:15;;;;;;;40.50;22.67;;;4.70;99.90;;;;;;4994108;28;20184;-90
2021/01/02 02:48:44;;;;;;;40.23;21.93;;;4.80;99.90;;;;;;4994913;28;20190;-90
2021/01/02 02:51:13;;;;;;;36.90;20.43;;;4.90;99.90;;;;;;5006169;28;20177;-89
2021/01/02 02:53:39;;;;;;;43.23;21.97;;;4.90;99.90;;;;;;4993901;28;20178;-90
2021/01/02 02:56:05;;;;;;;39.17;21.40;;;5.00;99.90;;;;;;4999622;28;20183;-90
2021/01/02 02:58:31;;;;;;;42.17;21.40;;;5.00;99.90;;;;;;5013342;28;20177;-90
2021/01/02 03:00:57;;;;;;;36.77;20.37;;;4.90;99.90;;;;;;5013515;28;20625;-90
2021/01/02 03:03:23;;;;;;;36.07;20.13;;;4.80;99.90;;;;;;4993815;28;20215;-90
2021/01/02 03:05:53;;;;;;;36.93;20.43;;;4.80;99.90;;;;;;4994138;28;20188;-89
2021/01/02 03:08:19;;;;;;;38.70;20.27;;;4.80;99.90;;;;;;5003654;28;20610;-90
2021/01/02 03:10:46;;;;;;;37.13;21.20;;;4.80;99.90;;;;;;5013226;28;20181;-89
2021/01/02 03:13:12;;;;;;;34.13;20.57;;;4.80;99.90;;;;;;4997196;28;20181;-90
2021/01/02 03:15:42;;;;;;;38.33;20.80;;;4.80;99.90;;;;;;5013377;28;20785;-90
2021/01/02 03:18:11;;;;;;;37.23;20.77;;;4.90;99.90;;;;;;5013406;28;20169;-89
2021/01/02 03:20:37;;;;;;;40.17;20.83;;;4.90;99.90;;;;;;5013423;28;20228;-90
2021/01/02 03:23:05;;;;;;;33.17;19.27;;;5.10;99.90;;;;;;5000792;28;20592;-90
2021/01/02 03:25:31;;;;;;;39.27;19.60;;;5.00;99.90;;;;;;5017282;28;20193;-90
2021/01/02 03:27:58;;;;;;;36.77;19.23;;;5.00;99.90;;;;;;5001324;28;20257;-90
2021/01/02 03:30:29;;;;;;;35.60;19.90;;;5.00;99.90;;;;;;5001132;28;20519;-90
2021/01/02 03:32:55;;;;;;;36.27;20.67;;;5.10;99.90;;;;;;5000890;28;20165;-90
2021/01/02 03:35:20;;;;;;;37.33;20.07;;;5.10;99.90;;;;;;5017133;28;20579;-90
2021/01/02 03:37:47;;;;;;;32.53;19.50;;;5.10;99.90;;;;;;5018331;28;20177;-90
2021/01/02 03:40:17;;;;;;;38.07;18.70;;;5.20;99.90;;;;;;5000764;28;20650;-90
2021/01/02 03:42:48;;;;;;;36.93;19.37;;;5.30;99.90;;;;;;5000634;28;20595;-90
2021/01/02 03:45:16;;;;;;;39.57;18.53;;;5.30;99.90;;;;;;5000649;28;20183;-90
2021/01/02 03:47:47;;;;;;;32.10;19.43;;;5.30;99.90;;;;;;5000632;28;20630;-89
2021/01/02 03:50:14;;;;;;;30.83;17.93;;;5.20;99.90;;;;;;5000610;28;20184;-90
2021/01/02 03:52:40;;;;;;;33.50;18.40;;;5.20;99.90;;;;;;5000024;28;20649;-89
2021/01/02 03:55:07;;;;;;;34.43;19.70;;;5.20;99.90;;;;;;4980817;28;20182;-90
2021/01/02 03:57:33;;;;;;;38.43;18.67;;;5.10;99.90;;;;;;4996990;28;20174;-90
2021/01/02 03:59:59;;;;;;;30.80;17.77;;;5.20;99.90;;;;;;4997005;28;20343;-90
2021/01/02 04:02:26;;;;;;;33.60;17.87;;;5.10;99.90;;;;;;4997038;28;20264;-90
2021/01/02 04:04:54;;;;;;;32.63;18.97;;;5.10;99.90;;;;;;5011193;28;20199;-90
2021/01/02 04:07:20;;;;;;;32.73;18.47;;;5.10;99.90;;;;;;5000510;28;20176;-90
2021/01/02 04:09:45;;;;;;;31.87;18.20;;;5.20;99.90;;;;;;5000403;28;20173;-89
2021/01/02 04:12:11;;;;;;;41.83;19.20;;;5.30;99.90;;;;;;5000169;28;20205;-90
2021/01/02 04:14:37;;;;;;;32.47;18.20;;;5.30;99.90;;;;;;5000093;28;20264;-90
2021/01/02 04:17:03;;;;;;;33.93;17.90;;;5.40;99.90;;;;;;4984013;28;20737;-90
2021/01/02 04:19:29;;;;;;;35.07;19.27;;;5.40;99.90;;;;;;5000296;28;20207;-90
2021/01/02 04:21:54;;;;;;;32.13;19.03;;;5.40;99.90;;;;;;5002046;28;20272;-90
2021/01/02 04:24:20;;;;;;;41.37;20.30;;;5.50;99.90;;;;;;5005452;28;20172;-90
2021/01/02 04:26:46;;;;;;;32.27;18.43;;;5.50;99.90;;;;;;5021089;28;20164;-90
2021/01/02 04:29:12;;;;;;;31.17;18.53;;;5.50;99.90;;;;;;5033324;28;20192;-90
2021/01/02 04:31:40;;;;;;;31.40;17.13;;;5.60;99.90;;;;;;5015621;28;20282;-89
2021/01/02 04:34:08;;;;;;;32.10;18.03;;;5.60;99.90;;;;;;5016082;28;20227;-90
2021/01/02 04:36:36;;;;;;;31.47;18.07;;;5.70;99.90;;;;;;5016219;28;20207;-90
2021/01/02 04:39:04;;;;;;;32.97;18.17;;;5.60;99.90;;;;;;5017547;28;20228;-90
2021/01/02 04:41:32;;;;;;;35.90;18.53;;;5.70;99.90;;;;;;5035244;28;20167;-90
2021/01/02 04:43:58;;;;;;;31.97;17.17;;;5.70;99.90;;;;;;5036381;28;20175;-89
2021/01/02 04:46:25;;;;;;;29.17;17.50;;;5.70;99.90;;;;;;5023510;28;20264;-90
2021/01/02 04:48:52;;;;;;;31.20;17.33;;;5.70;99.90;;;;;;4999691;28;20187;-89
2021/01/02 04:51:18;;;;;;;34.83;18.70;;;5.70;99.90;;;;;;4999350;28;20207;-90
2021/01/02 04:53:47;;;;;;;31.60;18.27;;;5.70;99.90;;;;;;5016797;28;20189;-90
2021/01/02 04:56:13;;;;;;;32.73;18.03;;;5.70;99.90;;;;;;5015474;28;20623;-89
2021/01/02 04:58:43;;;;;;;35.00;17.87;;;5.70;99.90;;;;;;5015683;28;20259;-89
2021/01/02 05:01:11;;;;;;;31.80;18.33;;;5.60;99.90;;;;;;4999132;28;20168;-89
2021/01/02 05:03:43;;;;;;;34.20;18.97;;;5.50;99.90;;;;;;5016548;28;20200;-90
2021/01/02 05:06:09;;;;;;;33.10;18.90;;;5.40;99.90;;;;;;4999039;28;20252;-90
2021/01/02 05:08:34;;;;;;;33.17;18.80;;;5.40;99.90;;;;;;5015330;28;20200;-89
2021/01/02 05:11:05;;;;;;;34.90;17.73;;;5.30;99.90;;;;;;4995522;28;20162;-89
2021/01/02 05:13:32;;;;;;;32.43;19.27;;;5.30;99.90;;;;;;4995875;28;20200;-90
2021/01/02 05:16:23;;;;;;;36.10;19.03;;;5.20;99.90;;;;;;4995586;28;20268;-90
2021/01/02 05:18:59;;;;;;;33.93;18.07;;;5.10;99.90;;;;;;4983264;28;20205;-90
2021/01/02 05:21:26;;;;;;;29.63;17.73;;;5.00;99.90;;;;;;4995798;28;20173;-90
2021/01/02 05:24:15;;;;;;;32.57;18.37;;;5.00;99.90;;;;;;4995650;28;20173;-89
2021/01/02 05:26:56;;;;;;;38.30;20.07;;;4.90;99.90;;;;;;4996394;28;20249;-89
2021/01/02 05:29:27;;;;;;;39.43;19.07;;;5.00;99.90;;;;;;5001161;28;20176;-89
2021/01/02 05:32:01;;;;;;;33.83;18.63;;;5.10;99.90;;;;;;5014773;28;20608;-90
2021/01/02 05:34:32;;;;;;;37.60;18.17;;;5.20;99.90;;;;;;5014789;28;20623;-90
2021/01/02 05:37:04;;;;;;;33.90;18.00;;;5.20;99.90;;;;;;5015888;28;20212;-89
2021/01/02 05:39:40;;;;;;;35.43;17.90;;;5.30;99.90;;;;;;5014285;28;20236;-90
2021/01/02 05:42:07;;;;;;;34.43;18.73;;;5.40;99.90;;;;;;5016074;28;20179;-90
2021/01/02 05:44:35;;;;;;;36.67;18.83;;;5.40;99.90;;;;;;5014638;28;20303;-89
2021/01/02 05:47:02;;;;;;;37.53;19.67;;;5.40;99.90;;;;;;5016081;28;20223;-90
2021/01/02 05:49:45;;;;;;;34.23;19.70;;;5.40;99.90;;;;;;4998262;28;20181;-90
2021/01/02 05:52:12;;;;;;;36.33;20.57;;;5.30;99.90;;;;;;4994919;28;20173;-88
2021/01/02 05:54:47;;;;;;;39.50;19.47;;;5.30;99.90;;;;;;4995098;28;20181;-89
2021/01/02 05:57:14;;;;;;;35.57;19.83;;;5.30;99.90;;;;;;4989799;28;20545;-89
2021/01/02 05:59:42;;;;;;;41.97;20.00;;;5.30;99.90;;;;;;4994701;28;20288;-90
2021/01/02 06:02:22;;;;;;;39.73;21.10;;;5.40;99.90;;;;;;5006999;28;20268;-90
2021/01/02 06:04:58;;;;;;;33.57;19.07;;;5.30;99.90;;;;;;4994455;28;20165;-89
2021/01/02 06:07:26;;;;;;;39.83;19.43;;;5.30;99.90;;;;;;4979247;28;20296;-90
2021/01/02 06:09:52;;;;;;;33.27;18.40;;;5.50;99.90;;;;;;4995454;28;20697;-89
2021/01/02 06:12:31;;;;;;;37.50;19.53;;;5.50;99.90;;;;;;4995710;28;20257;-90
2021/01/02 06:14:59;;;;;;;40.80;21.33;;;5.50;99.90;;;;;;4995897;28;20168;-90
2021/01/02 06:17:46;;;;;;;40.43;21.00;;;5.70;99.90;;;;;;4995423;28;20674;-90
2021/01/02 06:20:17;;;;;;;37.10;19.47;;;5.70;99.90;;;;;;4996791;28;20188;-89
2021/01/02 06:22:43;;;;;;;32.27;18.30;;;5.70;99.90;;;;;;4995486;28;20176;-89
2021/01/02 06:25:12;;;;;;;37.67;20.30;;;5.80;99.90;;;;;;5017934;28;20160;-89
2021/01/02 06:27:47;;;;;;;36.53;18.67;;;5.90;99.90;;;;;;5019795;28;20149;-89
2021/01/02 06:30:18;;;;;;;33.07;19.67;;;5.80;99.90;;;;;;5037633;28;20187;-88
2021/01/02 06:32:47;;;;;;;35.73;20.07;;;5.80;99.90;;;;;;5036175;28;20165;-89
2021/01/02 06:35:13;;;;;;;35.23;19.07;;;5.70;99.90;;;;;;4989890;28;20165;-90
2021/01/02 06:37:48;;;;;;;43.20;20.47;;;5.80;99.90;;;;;;4980151;28;20293;-89
2021/01/02 06:40:25;;;;;;;37.13;20.23;;;5.80;99.90;;;;;;4978828;28;20201;-90
2021/01/02 06:42:58;;;;;;;36.83;19.90;;;5.80;99.90;;;;;;4962346;28;20208;-90
2021/01/02 06:45:36;;;;;;;32.03;19.03;;;5.80;99.90;;;;;;5011776;28;20215;-89
2021/01/02 06:48:16;;;;;;;40.43;19.37;;;5.80;99.90;;;;;;5004883;28;20172;-90
2021/01/02 06:50:57;;;;;;;37.60;19.80;;;5.80;99.90;;;;;;5019947;28;20171;-90
2021/01/02 06:53:36;;;;;;;32.67;19.10;;;5.90;99.90;;;;;;5036110;28;20215;-89
2021/01/02 06:56:16;;;;;;;32.13;18.60;;;5.90;99.90;;;;;;5019603;28;20161;-89
2021/01/02 06:58:49;;;;;;;33.53;19.03;;;5.80;99.90;;;;;;4998364;28;20251;-89
2021/01/02 07:01:18;;;;;;;30.87;18.40;;;5.80;99.90;;;;;;4999165;28;20192;-90
2021/01/02 07:03:49;;;;;;;34.37;18.97;;;5.80;99.90;;;;;;5002977;28;20234;-89
2021/01/02 07:06:17;;;;;;;35.43;19.17;;;5.90;99.90;;;;;;5028623;28;20183;-89
2021/01/02 07:08:44;;;;;;;37.13;19.43;;;5.90;99.90;;;;;;5019333;28;20173;-89
2021/01/02 07:11:33;;;;;;;35.10;19.13;;;5.90;99.90;;;;;;5011347;28;20179;-90
2021/01/02 07:14:11;;;;;;;36.90;20.03;;;5.90;99.90;;;;;;4997646;28;20629;-90
2021/01/02 07:16:43;;;;;;;36.50;20.30;;;6.00;99.90;;;;;;4993900;28;20619;-90
2021/01/02 07:19:29;;;;;;;34.57;19.23;;;6.00;99.90;;;;;;4978101;28;20205;-90
2021/01/02 07:22:01;;;;;;;31.73;18.10;;;6.00;99.90;;;;;;4991345;28;20189;-89
2021/01/02 07:24:31;;;;;;;38.73;19.97;;;6.00;99.90;;;;;;4996947;28;20189;-90
2021/01/02 07:27:04;;;;;;;35.23;19.93;;;6.00;99.90;;;;;;4996744;28;20176;-90
2021/01/02 07:29:34;;;;;;;32.93;19.67;;;6.00;99.90;;;;;;4995786;28;20177;-88
2021/01/02 07:32:10;;;;;;;36.60;20.30;;;6.00;99.90;;;;;;5013199;28;20195;-87
2021/01/02 07:34:36;;;;;;;37.03;19.53;;;6.00;99.90;;;;;;4996679;28;20204;-90
2021/01/02 07:37:07;;;;;;;36.60;20.20;;;6.00;99.90;;;;;;5013364;28;20176;-90
2021/01/02 07:39:33;;;;;;;38.87;20.77;;;6.00;99.90;;;;;;5013544;28;20228;-89
2021/01/02 07:42:21;;;;;;;34.90;18.93;;;5.90;99.90;;;;;;5000481;28;20265;-90
2021/01/02 07:45:11;;;;;;;33.50;19.43;;;5.60;99.90;;;;;;4997188;28;20177;-89
2021/01/02 07:47:39;;;;;;;37.33;20.07;;;5.50;99.90;;;;;;4996420;28;20173;-89
2021/01/02 07:50:13;;;;;;;37.07;19.27;;;5.30;99.90;;;;;;4996754;28;20716;-90
2021/01/02 07:52:55;;;;;;;38.43;20.43;;;5.20;99.90;;;;;;4994671;28;20646;-89
2021/01/02 07:55:26;;;;;;;36.93;19.53;;;5.20;99.90;;;;;;5008623;28;20517;-89
2021/01/02 07:57:52;;;;;;;34.90;19.70;;;5.20;99.90;;;;;;4996261;28;20166;-89
2021/01/02 08:00:19;;;;;;;38.70;20.97;;;5.10;99.90;;;;;;5012931;28;20411;-89
2021/01/02 08:02:45;;;;;;;38.47;21.47;;;5.30;99.90;;;;;;4996646;28;20192;-89
2021/01/02 08:05:13;;;;;;;39.03;21.70;;;5.30;99.90;;;;;;4993111;28;20385;-89
2021/01/02 08:07:43;;;;;;;42.27;21.90;;;5.40;99.90;;;;;;5012361;28;20181;-89
2021/01/02 08:10:11;;;;;;;40.27;20.60;;;5.50;99.90;;;;;;5017261;28;20185;-89
2021/01/02 08:12:38;;;;;;;36.03;20.83;;;5.60;99.90;;;;;;5016126;28;20188;-89
2021/01/02 08:15:04;;;;;;;39.07;21.60;;;5.80;99.90;;;;;;5008417;28;20540;-89
2021/01/02 08:17:39;;;;;;;40.97;20.67;;;5.80;99.90;;;;;;5001192;28;20180;-90
2021/01/02 08:20:05;;;;;;;37.03;20.50;;;5.80;99.90;;;;;;5000598;28;20200;-90
2021/01/02 08:22:40;;;;;;;37.47;20.93;;;5.80;99.90;;;;;;4999720;28;20669;-90
2021/01/02 08:25:06;;;;;;;40.87;21.77;;;5.80;99.90;;;;;;5008047;28;20180;-91
2021/01/02 08:27:36;;;;;;;37.40;20.17;;;5.80;99.90;;;;;;5002987;28;20177;-91
2021/01/02 08:30:09;;;;;;;35.47;20.20;;;5.90;99.90;;;;;;5002310;28;20188;-91
2021/01/02 08:32:38;;;;;;;35.40;20.40;;;5.90;99.90;;;;;;5015746;28;20186;-93
2021/01/02 08:35:18;;;;;;;36.60;20.60;;;6.00;99.90;;;;;;5020341;28;20177;-93
2021/01/02 08:37:46;;;;;;;39.57;21.80;;;6.10;99.90;;;;;;5002133;28;20181;-91
2021/01/02 08:40:13;;;;;;;37.13;21.93;;;6.30;99.90;;;;;;5011118;28;20227;-91
2021/01/02 08:42:42;;;;;;;37.10;21.23;;;6.20;99.90;;;;;;4988493;28;20201;-91
2021/01/02 08:45:09;;;;;;;34.30;20.43;;;6.20;99.90;;;;;;5002713;28;20634;-92
2021/01/02 08:47:37;;;;;;;37.67;20.60;;;6.30;99.90;;;;;;5003978;28;20203;-90
2021/01/02 08:50:16;;;;;;;35.80;20.20;;;6.30;99.90;;;;;;4992010;28;20173;-91
2021/01/02 08:52:44;;;;;;;35.10;19.73;;;6.30;99.90;;;;;;5020955;28;20168;-90
2021/01/02 08:55:16;;;;;;;37.20;21.47;;;6.40;99.90;;;;;;5003225;28;20187;-91
2021/01/02 08:57:50;;;;;;;35.27;20.27;;;6.40;99.90;;;;;;5002157;28;20263;-90
2021/01/02 09:00:21;;;;;;;33.57;20.30;;;6.50;99.90;;;;;;5008759;28;20200;-90
2021/01/02 09:02:50;;;;;;;40.93;21.30;;;6.40;99.90;;;;;;5000439;28;20202;-91
2021/01/02 09:05:25;;;;;;;34.27;19.03;;;6.50;99.90;;;;;;4979891;28;20193;-92
2021/01/02 09:07:56;;;;;;;33.17;20.13;;;6.60;99.90;;;;;;5012864;28;20211;-92
2021/01/02 09:10:25;;;;;;;32.00;19.63;;;6.70;99.90;;;;;;5020959;28;20180;-91
2021/01/02 09:13:02;;;;;;;32.53;19.93;;;6.80;99.90;;;;;;5010548;28;20181;-90
2021/01/02 09:15:49;;;;;;;38.00;20.70;;;6.80;99.90;;;;;;5021198;28;20187;-92
2021/01/02 09:18:18;;;;;;;36.73;20.23;;;6.80;99.90;;;;;;5021312;28;20168;-90
2021/01/02 09:20:44;;;;;;;35.17;20.57;;;6.90;99.90;;;;;;5009612;28;20192;-91
2021/01/02 09:23:10;;;;;;;31.00;19.50;;;7.00;99.90;;;;;;5017343;28;20181;-91
2021/01/02 09:25:39;;;;;;;30.37;19.23;;;7.20;99.90;;;;;;5016771;28;20177;-91
2021/01/02 09:28:12;;;;;;;33.27;20.20;;;7.30;99.90;;;;;;5015977;28;20684;-90
2021/01/02 09:30:38;;;;;;;28.40;18.27;;;7.50;99.90;;;;;;5026322;28;20223;-91
2021/01/02 09:33:04;;;;;;;29.53;19.13;;;7.50;99.90;;;;;;5022585;28;20173;-91
2021/01/02 09:35:30;;;;;;;30.13;17.97;;;7.50;99.90;;;;;;5021307;28;20173;-91
2021/01/02 09:37:56;;;;;;;29.80;19.93;;;7.50;99.90;;;;;;5015895;28;20196;-91
2021/01/02 09:40:22;;;;;;;34.93;20.30;;;7.40;99.90;;;;;;5014976;28;20204;-93
2021/01/02 09:42:48;;;;;;;35.27;19.87;;;7.30;99.90;;;;;;4999289;28;20164;-91
2021/01/02 09:45:15;;;;;;;29.67;18.30;;;7.30;99.90;;;;;;5015865;28;20187;-91
2021/01/02 09:47:41;;;;;;;33.60;19.40;;;7.30;99.90;;;;;;5010072;28;20173;-90
2021/01/02 09:50:08;;;;;;;34.93;19.50;;;7.40;99.90;;;;;;4996230;28;20177;-93
2021/01/02 09:52:34;;;;;;;30.87;18.40;;;7.40;99.90;;;;;;5002997;28;20195;-91
2021/01/02 09:55:00;;;;;;;30.50;18.93;;;7.40;99.90;;;;;;4991524;28;20591;-91
2021/01/02 09:57:26;;;;;;;31.43;18.60;;;7.50;99.90;;;;;;4974109;28;20275;-92
2021/01/02 09:59:52;;;;;;;31.70;19.43;;;7.40;99.90;;;;;;4981993;28;20535;-92
2021/01/02 10:02:19;;;;;;;34.07;19.63;;;7.30;99.90;;;;;;4999170;28;20208;-90
2021/01/02 10:04:46;;;;;;;34.07;19.87;;;7.10;99.90;;;;;;5009318;28;20649;-92
2021/01/02 10:07:13;;;;;;;34.33;19.50;;;7.10;99.90;;;;;;4995361;28;20586;-91
2021/01/02 10:09:46;;;;;;;28.53;18.93;;;7.00;99.90;;;;;;5000164;28;20230;-90
2021/01/02 10:12:17;;;;;;;32.93;19.80;;;7.00;99.90;;;;;;5014188;28;20173;-90
2021/01/02 10:14:46;;;;;;;33.60;19.70;;;7.00;99.90;;;;;;5014375;28;20176;-90
2021/01/02 10:17:12;;;;;;;32.43;18.90;;;7.00;99.90;;;;;;4997868;28;20181;-90
2021/01/02 10:19:45;;;;;;;36.10;19.37;;;7.10;99.90;;;;;;4997642;28;20196;-90
2021/01/02 10:22:12;;;;;;;31.50;18.50;;;7.00;99.90;;;;;;5014744;28;20193;-89
2021/01/02 10:24:38;;;;;;;30.93;18.80;;;7.10;99.90;;;;;;4997701;28;20246;-89
2021/01/02 10:27:05;;;;;;;33.53;19.30;;;7.20;99.90;;;;;;4996841;28;20177;-89
2021/01/02 10:29:39;;;;;;;31.10;18.67;;;7.20;99.90;;;;;;4997041;28;20181;-90
2021/01/02 10:32:06;;;;;;;36.60;19.17;;;7.20;99.90;;;;;;5014132;28;20180;-90
2021/01/02 10:34:32;;;;;;;30.37;17.60;;;7.30;99.90;;;;;;5009529;28;20192;-90
2021/01/02 10:36:57;;;;;;;29.93;18.67;;;7.60;99.90;;;;;;4994477;28;20192;-89
2021/01/02 10:39:23;;;;;;;31.87;19.33;;;7.70;99.90;;;;;;4994313;28;20197;-90
2021/01/02 10:41:50;;;;;;;28.87;17.63;;;7.70;99.90;;;;;;4977940;28;20177;-89
2021/01/02 10:44:18;;;;;;;29.17;18.30;;;7.60;99.90;;;;;;4993191;28;20630;-89
2021/01/02 10:46:53;;;;;;;34.97;18.27;;;7.70;99.90;;;;;;4977616;28;20224;-90
2021/01/02 10:49:21;;;;;;;25.67;17.47;;;7.80;99.90;;;;;;5012912;28;20180;-90
2021/01/02 10:51:47;;;;;;;28.07;18.27;;;7.90;99.90;;;;;;5013866;28;20165;-90
2021/01/02 10:54:15;;;;;;;28.40;17.83;;;8.00;99.90;;;;;;4999738;28;20177;-89
2021/01/02 10:56:46;;;;;;;33.77;18.73;;;8.00;99.90;;;;;;4977517;28;20198;-90
2021/01/02 10:59:14;;;;;;;28.93;17.13;;;8.00;99.90;;;;;;4980482;28;20201;-90
2021/01/02 11:01:44;;;;;;;30.03;18.17;;;7.90;99.90;;;;;;5007117;28;20200;-89
2021/01/02 11:04:13;;;;;;;36.30;18.10;;;8.10;99.90;;;;;;5001792;28;20177;-91
2021/01/02 11:06:43;;;;;;;32.77;18.67;;;8.10;99.90;;;;;;5001136;28;20717;-91
2021/01/02 11:09:12;;;;;;;30.23;18.77;;;8.30;99.90;;;;;;4999944;28;20521;-91
2021/01/02 11:11:38;;;;;;;29.57;18.00;;;8.50;99.90;;;;;;5016956;28;20172;-91
2021/01/02 11:14:04;;;;;;;25.77;17.13;;;8.60;99.90;;;;;;4982935;28;20180;-95
2021/01/02 11:16:37;;;;;;;36.10;18.13;;;8.50;99.90;;;;;;5011945;28;20216;-91
2021/01/02 11:19:31;;;;;;;30.83;18.97;;;8.50;99.90;;;;;;5014730;28;20172;-88
2021/01/02 11:22:01;;;;;;;31.67;17.63;;;8.70;99.90;;;;;;4975387;28;20665;-90
2021/01/02 11:24:30;;;;;;;27.83;18.47;;;8.70;99.90;;;;;;4979645;28;20173;-90
2021/01/02 11:27:01;;;;;;;34.83;19.17;;;8.60;99.90;;;;;;4994828;28;20259;-90
2021/01/02 11:29:30;;;;;;;31.47;19.37;;;8.50;99.90;;;;;;5016143;28;20208;-90
2021/01/02 11:31:58;;;;;;;29.07;19.33;;;8.40;99.90;;;;;;4998936;28;20188;-90
2021/01/02 11:34:24;;;;;;;33.00;19.33;;;8.50;99.90;;;;;;4996831;28;20177;-90
2021/01/02 11:37:00;;;;;;;31.27;19.47;;;8.40;99.90;;;;;;4981152;28;20176;-91
2021/01/02 11:39:28;;;;;;;29.23;18.67;;;8.40;99.90;;;;;;5018386;28;20214;-89
2021/01/02 11:42:01;;;;;;;31.43;18.43;;;8.30;99.90;;;;;;5036955;28;20168;-89
2021/01/02 11:44:26;;;;;;;30.80;19.73;;;8.20;99.90;;;;;;5022237;28;20149;-89
2021/01/02 11:46:55;;;;;;;41.47;20.30;;;8.10;99.90;;;;;;4993134;28;20207;-90
2021/01/02 11:49:29;;;;;;;33.63;19.47;;;7.90;99.90;;;;;;5001274;28;20181;-91
2021/01/02 11:52:27;;;;;;;33.73;20.60;;;7.80;99.90;;;;;;5010627;28;20795;-91
2021/01/02 11:54:57;;;;;;;33.23;18.97;;;7.80;99.90;;;;;;5025390;28;20203;-91
2021/01/02 11:57:23;;;;;;;32.93;19.47;;;7.70;99.90;;;;;;5034996;28;20176;-92
2021/01/02 11:59:51;;;;;;;31.73;20.00;;;7.70;99.90;;;;;;5015364;28;20197;-89
2021/01/02 12:02:16;;;;;;;37.43;19.90;;;7.70;99.90;;;;;;4987756;28;20181;-91
2021/01/02 12:05:02;;;;;;;32.03;18.93;;;7.70;99.90;;;;;;4995399;28;20310;-90
2021/01/02 12:07:28;;;;;;;31.33;19.37;;;7.80;99.90;;;;;;5015087;28;20189;-90
2021/01/02 12:09:54;;;;;;;37.27;19.23;;;7.60;99.90;;;;;;4993812;28;20188;-91
2021/01/02 12:12:24;;;;;;;47.07;21.13;;;7.70;99.90;;;;;;5011068;28;20181;-90
2021/01/02 12:14:50;;;;;;;42.73;21.90;;;7.60;99.90;;;;;;4993109;28;20172;-92
2021/01/02 12:17:16;;;;;;;38.63;20.23;;;7.50;99.90;;;;;;5023596;28;20577;-91
2021/01/02 12:19:43;;;;;;;37.90;20.23;;;7.50;99.90;;;;;;4997715;28;20264;-89
2021/01/02 12:22:09;;;;;;;36.40;20.23;;;7.50;99.90;;;;;;4986872;28;20613;-91
2021/01/02 12:24:36;;;;;;;34.43;20.03;;;7.50;99.90;;;;;;5004534;28;20231;-90
2021/01/02 12:27:07;;;;;;;34.13;19.43;;;7.70;99.90;;;;;;5003735;28;20177;-89
2021/01/02 12:29:37;;;;;;;34.17;20.53;;;7.70;99.90;;;;;;5002689;28;20165;-91
2021/01/02 12:32:11;;;;;;;32.80;19.47;;;7.70;99.90;;;;;;5002942;28;20177;-91
2021/01/02 12:34:40;;;;;;;38.43;20.87;;;7.80;99.90;;;;;;4986063;28;20169;-91
2021/01/02 12:37:17;;;;;;;44.57;20.33;;;7.80;99.90;;;;;;5017930;28;20207;-91
2021/01/02 12:39:44;;;;;;;36.63;20.13;;;7.90;99.90;;;;;;5014348;28;20227;-91
2021/01/02 12:42:11;;;;;;;37.70;20.30;;;7.80;99.90;;;;;;5015425;28;20169;-91
2021/01/02 12:44:36;;;;;;;37.77;20.07;;;7.90;99.90;;;;;;4998407;28;20528;-92
2021/01/02 12:47:13;;;;;;;41.90;19.53;;;7.90;99.90;;;;;;4996115;28;20185;-91
2021/01/02 12:49:42;;;;;;;29.80;18.83;;;7.80;99.90;;;;;;4982940;28;20611;-91
2021/01/02 12:52:09;;;;;;;32.53;19.23;;;8.00;99.90;;;;;;5002286;28;20195;-91
2021/01/02 12:54:44;;;;;;;33.27;19.67;;;8.10;99.90;;;;;;4990096;28;20556;-92
2021/01/02 12:57:09;;;;;;;46.57;20.30;;;8.20;99.90;;;;;;5001886;28;20188;-91
2021/01/02 13:02:26;;;;;;;40.83;22.27;;;8.40;99.90;;;;;;5003966;28;20638;-92